createdAt,value
2022-10-05T00:01:34.538Z,7.00
2022-10-05T00:04:28.965Z,7.50
2022-10-05T00:07:18.523Z,6.60
2022-10-05T00:09:57.906Z,7.15
2022-10-05T00:12:29.676Z,7.13
2022-10-05T00:15:01.116Z,7.72
2022-10-05T00:17:30.733Z,8.20
2022-10-05T00:19:58.009Z,7.33
2022-10-05T00:22:33.269Z,8.02
2022-10-05T00:25:11.143Z,7.28
2022-10-05T00:27:39.749Z,7.53
2022-10-05T00:30:17.699Z,7.60
2022-10-05T00:32:46.355Z,6.97
2022-10-05T00:35:16.623Z,7.28
2022-10-05T00:37:46.628Z,7.57
2022-10-05T00:41:08.882Z,6.70
2022-10-05T00:44:59.956Z,7.15
2022-10-05T00:51:24.116Z,6.47
2022-10-05T00:54:36.676Z,5.82
2022-10-05T00:57:44.480Z,6.90
2022-10-05T01:00:20.204Z,7.43
2022-10-05T01:03:25.905Z,6.97
2022-10-05T01:06:34.104Z,7.32
2022-10-05T01:09:33.239Z,7.30
2022-10-05T01:12:45.582Z,8.82
2022-10-05T01:15:39.700Z,7.40
2022-10-05T01:18:59.035Z,7.15
2022-10-05T01:21:36.853Z,7.07
2022-10-05T01:24:49.863Z,8.27
2022-10-05T01:28:04.746Z,7.50
2022-10-05T01:30:56.867Z,7.65
2022-10-05T01:33:50.297Z,7.72
2022-10-05T01:36:51.484Z,7.82
2022-10-05T01:39:49.106Z,7.07
2022-10-05T01:42:56.006Z,7.95
2022-10-05T01:46:15.412Z,7.68
2022-10-05T01:49:50.184Z,7.90
2022-10-05T01:52:52.210Z,6.88
2022-10-05T01:56:22.560Z,7.60
2022-10-05T01:59:46.920Z,7.63
2022-10-05T02:02:21.018Z,7.55
2022-10-05T02:05:08.237Z,7.60
2022-10-05T02:07:51.117Z,8.43
2022-10-05T02:10:36.280Z,7.45
2022-10-05T02:13:38.894Z,8.65
2022-10-05T02:16:45.063Z,8.48
2022-10-05T02:19:44.641Z,6.90
2022-10-05T02:22:38.082Z,7.25
2022-10-05T02:25:33.132Z,7.45
2022-10-05T02:29:00.344Z,7.65
2022-10-05T02:31:57.560Z,8.55
2022-10-05T02:34:38.412Z,7.20
2022-10-05T02:37:57.124Z,8.77
2022-10-05T02:41:20.055Z,7.25
2022-10-05T02:44:41.688Z,7.75
2022-10-05T02:47:54.996Z,9.23
2022-10-05T02:50:39.084Z,8.57
2022-10-05T02:54:04.631Z,8.02
2022-10-05T02:57:16.301Z,8.00
2022-10-05T03:00:15.024Z,7.85
2022-10-05T03:03:25.442Z,8.18
2022-10-05T03:06:04.571Z,8.43
2022-10-05T03:08:55.458Z,7.72
2022-10-05T03:12:22.994Z,8.30
2022-10-05T03:15:45.028Z,7.95
2022-10-05T03:19:31.371Z,8.00
2022-10-05T03:23:02.151Z,7.70
2022-10-05T03:25:41.288Z,7.38
2022-10-05T03:28:54.908Z,8.45
2022-10-05T03:31:59.678Z,7.82
2022-10-05T03:35:00.311Z,8.07
2022-10-05T03:37:39.508Z,8.50
2022-10-05T03:40:39.800Z,8.90
2022-10-05T03:44:16.713Z,8.75
2022-10-05T03:47:38.004Z,9.60
2022-10-05T03:51:12.944Z,11.43
2022-10-05T03:53:56.624Z,12.00
2022-10-05T03:56:53.424Z,12.57
2022-10-05T03:59:40.471Z,11.93
2022-10-05T04:02:31.098Z,12.95
2022-10-05T04:08:07.661Z,12.85
2022-10-05T04:10:55.415Z,16.83
2022-10-05T04:13:51.973Z,15.07
2022-10-05T04:16:34.594Z,14.77
2022-10-05T04:19:19.591Z,14.38
2022-10-05T04:22:17.134Z,14.38
2022-10-05T04:25:24.968Z,15.60
2022-10-05T04:28:31.967Z,15.45
2022-10-05T04:31:04.111Z,15.27
2022-10-05T04:33:33.341Z,14.65
2022-10-05T04:36:30.046Z,15.52
2022-10-05T04:39:48.001Z,15.88
2022-10-05T04:42:45.737Z,16.83
2022-10-05T04:46:08.979Z,16.83
2022-10-05T04:49:29.939Z,15.43
2022-10-05T04:52:37.949Z,15.23
2022-10-05T04:55:45.936Z,16.80
2022-10-05T04:59:05.196Z,17.15
2022-10-05T05:02:53.315Z,17.35
2022-10-05T05:06:28.192Z,17.30
2022-10-05T05:09:59.563Z,18.02
2022-10-05T05:13:50.523Z,16.42
2022-10-05T05:16:43.650Z,13.63
2022-10-05T05:20:16.805Z,17.42
2022-10-05T05:23:23.816Z,17.15
2022-10-05T05:26:14.626Z,16.48
2022-10-05T05:29:44.849Z,17.27
2022-10-05T05:33:12.742Z,16.02
2022-10-05T05:35:52.798Z,16.23
2022-10-05T05:38:44.726Z,15.23
2022-10-05T05:41:44.231Z,15.88
2022-10-05T05:44:38.603Z,15.35
2022-10-05T05:47:30.757Z,14.63
2022-10-05T05:50:51.494Z,15.65
2022-10-05T05:53:57.696Z,15.80
2022-10-05T05:56:40.389Z,14.02
2022-10-05T05:59:32.519Z,12.60
2022-10-05T06:02:27.310Z,13.57
2022-10-05T06:05:32.068Z,13.55
2022-10-05T06:08:20.445Z,14.10
2022-10-05T06:11:00.515Z,15.07
2022-10-05T06:13:40.463Z,14.35
2022-10-05T06:16:51.857Z,13.55
2022-10-05T06:19:24.544Z,13.25
2022-10-05T06:22:32.673Z,12.80
2022-10-05T06:25:11.768Z,14.10
2022-10-05T06:28:00.234Z,13.25
2022-10-05T06:31:02.981Z,12.95
2022-10-05T06:34:01.695Z,13.43
2022-10-05T06:36:50.944Z,14.18
2022-10-05T06:39:54.591Z,13.13
2022-10-05T06:42:59.864Z,14.52
2022-10-05T06:46:16.151Z,14.75
2022-10-05T06:49:23.358Z,14.23
2022-10-05T06:52:14.810Z,14.30
2022-10-05T06:55:13.909Z,14.30
2022-10-05T06:58:30.889Z,13.65
2022-10-05T07:01:38.855Z,15.23
2022-10-05T07:04:42.457Z,15.10
2022-10-05T07:07:32.506Z,14.88
2022-10-05T07:10:54.893Z,14.70
2022-10-05T07:14:14.061Z,15.95
2022-10-05T07:17:29.247Z,15.13
2022-10-05T07:20:55.318Z,16.83
2022-10-05T07:23:58.237Z,17.00
2022-10-05T07:27:13.559Z,17.30
2022-10-05T07:30:12.878Z,17.48
2022-10-05T07:33:20.841Z,18.17
2022-10-05T07:37:08.581Z,18.50
2022-10-05T07:40:30.735Z,18.17
2022-10-05T07:44:01.104Z,19.42
2022-10-05T07:47:26.119Z,18.38
2022-10-05T07:50:43.840Z,17.70
2022-10-05T07:53:45.176Z,16.23
2022-10-05T07:56:49.409Z,17.02
2022-10-05T08:00:19.033Z,15.57
2022-10-05T08:03:34.362Z,14.68
2022-10-05T08:06:03.789Z,13.82
2022-10-05T08:09:26.144Z,14.57
2022-10-05T08:12:31.129Z,14.98
2022-10-05T08:15:45.926Z,14.73
2022-10-05T08:18:54.313Z,13.57
2022-10-05T08:22:04.229Z,13.00
2022-10-05T08:25:01.912Z,11.80
2022-10-05T08:28:23.067Z,14.05
2022-10-05T08:31:33.649Z,11.85
2022-10-05T08:34:39.536Z,12.55
2022-10-05T08:37:35.294Z,13.45
2022-10-05T08:41:27.385Z,12.18
2022-10-05T08:44:41.384Z,13.00
2022-10-05T08:48:04.680Z,12.00
2022-10-05T08:50:50.035Z,12.48
2022-10-05T08:53:59.281Z,12.82
2022-10-05T08:57:31.428Z,12.45
2022-10-05T09:00:24.846Z,12.93
2022-10-05T09:03:50.480Z,13.43
2022-10-05T09:07:13.324Z,12.60
2022-10-05T09:10:13.627Z,13.65
2022-10-05T09:13:48.203Z,12.18
2022-10-05T09:17:19.654Z,12.20
2022-10-05T09:20:30.845Z,13.02
2022-10-05T09:23:26.304Z,13.13
2022-10-05T09:26:46.608Z,11.45
2022-10-05T09:30:10.622Z,10.85
2022-10-05T09:32:58.199Z,9.30
2022-10-05T09:36:18.772Z,9.95
2022-10-05T09:39:42.323Z,8.50
2022-10-05T09:42:40.027Z,7.95
2022-10-05T09:46:05.264Z,8.25
2022-10-05T09:49:31.393Z,6.35
2022-10-05T09:53:27.540Z,7.15
2022-10-05T09:56:52.389Z,6.38
2022-10-05T10:00:34.368Z,5.70
2022-10-05T10:04:17.956Z,6.18
2022-10-05T10:07:20.554Z,5.28
2022-10-05T10:10:41.877Z,5.47
2022-10-05T10:14:01.347Z,4.95
2022-10-05T10:17:27.752Z,5.15
2022-10-05T10:21:07.725Z,4.93
2022-10-05T10:24:24.052Z,4.77
2022-10-05T10:27:42.030Z,5.18
2022-10-05T10:30:56.406Z,4.70
2022-10-05T10:34:03.733Z,4.00
2022-10-05T10:37:00.941Z,4.60
2022-10-05T10:40:26.909Z,4.63
2022-10-05T10:43:43.716Z,4.35
2022-10-05T10:47:13.869Z,4.32
2022-10-05T10:50:28.278Z,4.22
2022-10-05T10:53:57.524Z,3.63
2022-10-05T10:57:10.984Z,3.67
2022-10-05T11:00:20.866Z,3.10
2022-10-05T11:03:43.536Z,3.05
2022-10-05T11:06:50.072Z,2.85
2022-10-05T11:09:27.919Z,2.72
2022-10-05T11:12:58.548Z,2.00
2022-10-05T11:17:10.884Z,2.15
2022-10-05T11:20:19.736Z,1.85
2022-10-05T11:23:56.520Z,2.03
2022-10-05T11:27:04.282Z,2.05
2022-10-05T11:30:35.273Z,2.20
2022-10-05T11:34:04.052Z,2.50
2022-10-05T11:37:15.883Z,1.25
2022-10-05T11:40:43.203Z,1.50
2022-10-05T11:44:07.230Z,1.48
2022-10-05T11:47:19.736Z,1.65
2022-10-05T11:50:30.400Z,1.40
2022-10-05T11:53:33.623Z,1.30
2022-10-05T11:56:41.715Z,0.98
2022-10-05T11:59:51.597Z,1.00
2022-10-05T12:03:06.949Z,0.88
2022-10-05T12:06:38.760Z,0.80
2022-10-05T12:09:37.352Z,0.95
2022-10-05T12:12:27.680Z,1.77
2022-10-05T12:18:42.149Z,1.80
2022-10-05T12:21:49.982Z,1.70
2022-10-05T12:25:46.975Z,1.85
2022-10-05T12:28:23.442Z,1.38
2022-10-05T12:31:45.957Z,1.48
2022-10-05T12:35:04.488Z,1.05
2022-10-05T12:38:12.462Z,1.10
2022-10-05T12:41:20.273Z,1.60
2022-10-05T12:44:04.684Z,1.33
2022-10-05T12:46:50.521Z,1.13
2022-10-05T12:50:35.168Z,1.17
2022-10-05T12:54:07.184Z,10.30
2022-10-05T12:56:44.731Z,17.23
2022-10-05T12:59:34.464Z,1.90
2022-10-05T13:02:44.440Z,2.15
2022-10-05T13:05:11.456Z,2.30
2022-10-05T13:08:31.020Z,2.15
2022-10-05T13:11:16.926Z,1.45
2022-10-05T13:14:45.350Z,1.77
2022-10-05T13:18:03.771Z,2.00
2022-10-05T13:21:15.163Z,1.85
2022-10-05T13:24:22.119Z,2.00
2022-10-05T13:27:05.554Z,1.75
2022-10-05T13:30:12.259Z,1.48
2022-10-05T13:33:05.705Z,1.83
2022-10-05T13:35:58.976Z,1.55
2022-10-05T13:38:52.996Z,1.33
2022-10-05T13:42:26.843Z,2.13
2022-10-05T13:45:21.314Z,1.40
2022-10-05T13:48:57.769Z,1.17
2022-10-05T13:51:56.337Z,1.20
2022-10-05T13:55:16.992Z,1.25
2022-10-05T13:58:25.914Z,1.23
2022-10-05T14:01:13.562Z,1.20
2022-10-05T14:03:42.079Z,1.20
2022-10-05T14:06:30.006Z,0.95
2022-10-05T14:09:00.494Z,0.90
2022-10-05T14:11:35.127Z,0.90
2022-10-05T14:14:27.303Z,0.95
2022-10-05T14:17:00.905Z,0.80
2022-10-05T14:19:46.252Z,0.98
2022-10-05T14:22:25.009Z,1.20
2022-10-05T14:25:19.919Z,1.00
2022-10-05T14:28:12.176Z,1.02
2022-10-05T14:30:40.493Z,1.10
2022-10-05T14:33:17.000Z,1.25
2022-10-05T14:35:51.303Z,0.77
2022-10-05T14:39:02.010Z,0.80
2022-10-05T14:41:34.413Z,0.70
2022-10-05T14:44:09.142Z,1.10
2022-10-05T14:46:38.564Z,1.23
2022-10-05T14:49:26.091Z,1.13
2022-10-05T14:51:56.238Z,0.90
2022-10-05T14:54:56.964Z,1.40
2022-10-05T14:58:03.628Z,1.20
2022-10-05T15:01:06.896Z,1.25
2022-10-05T15:04:22.649Z,1.27
2022-10-05T15:07:31.024Z,1.10
2022-10-05T15:10:29.417Z,0.88
2022-10-05T15:13:15.656Z,1.13
2022-10-05T15:16:14.409Z,1.30
2022-10-05T15:19:00.043Z,1.40
2022-10-05T15:22:15.116Z,0.98
2022-10-05T15:24:50.588Z,1.20
2022-10-05T15:28:06.340Z,1.10
2022-10-05T15:30:52.270Z,1.20
2022-10-05T15:33:51.064Z,1.20
2022-10-05T15:36:43.304Z,0.88
2022-10-05T15:39:37.094Z,0.98
2022-10-05T15:42:21.240Z,1.00
2022-10-05T15:45:35.232Z,1.02
2022-10-05T15:48:39.333Z,1.40
2022-10-05T15:51:50.877Z,1.30
2022-10-05T15:54:54.490Z,1.10
2022-10-05T15:57:48.975Z,1.50
2022-10-05T16:00:23.217Z,1.35
2022-10-05T16:03:59.616Z,1.25
2022-10-05T16:07:07.415Z,1.40
2022-10-05T16:10:14.353Z,1.63
2022-10-05T16:13:42.607Z,1.75
2022-10-05T16:16:54.514Z,1.45
2022-10-05T16:20:21.437Z,1.35
2022-10-05T16:23:33.404Z,1.38
2022-10-05T16:26:57.277Z,1.30
2022-10-05T16:30:04.000Z,1.40
2022-10-05T16:32:58.480Z,1.20
2022-10-05T16:36:23.358Z,1.10
2022-10-05T16:39:20.669Z,1.58
2022-10-05T16:42:24.077Z,1.20
2022-10-05T16:45:47.993Z,1.35
2022-10-05T16:48:52.409Z,1.10
2022-10-05T16:52:00.332Z,1.48
2022-10-05T16:55:02.909Z,1.65
2022-10-05T16:57:43.150Z,1.33
2022-10-05T17:00:45.337Z,2.08
2022-10-05T17:03:35.870Z,2.30
2022-10-05T17:06:59.139Z,2.38
2022-10-05T17:10:13.055Z,2.63
2022-10-05T17:13:23.320Z,1.80
2022-10-05T17:19:43.619Z,2.70
2022-10-05T17:22:52.937Z,2.85
2022-10-05T17:25:48.280Z,3.13
2022-10-05T17:28:41.140Z,3.00
2022-10-05T17:31:22.229Z,3.10
2022-10-05T17:34:16.538Z,3.22
2022-10-05T17:36:54.441Z,2.83
2022-10-05T17:39:52.273Z,3.40
2022-10-05T17:42:35.462Z,3.85
2022-10-05T17:45:31.624Z,3.33
2022-10-05T17:48:33.896Z,3.20
2022-10-05T17:51:19.876Z,3.60
2022-10-05T17:54:08.482Z,4.60
2022-10-05T17:56:47.994Z,4.35
2022-10-05T17:59:53.797Z,4.15
2022-10-05T18:02:42.808Z,4.40
2022-10-05T18:05:14.469Z,3.90
2022-10-05T18:07:48.151Z,3.72
2022-10-05T18:10:30.009Z,4.40
2022-10-05T18:13:00.225Z,4.07
2022-10-05T18:15:27.253Z,4.20
2022-10-05T18:18:32.189Z,3.50
2022-10-05T18:21:14.928Z,4.78
2022-10-05T18:23:56.869Z,4.35
2022-10-05T18:27:16.105Z,3.03
2022-10-05T18:30:08.754Z,3.45
2022-10-05T18:33:36.142Z,4.05
2022-10-05T18:36:54.875Z,5.10
2022-10-05T18:40:34.806Z,4.15
2022-10-05T18:43:37.987Z,3.00
2022-10-05T18:46:50.428Z,2.90
2022-10-05T18:50:42.928Z,2.95
2022-10-05T18:53:31.785Z,2.90
2022-10-05T18:56:45.147Z,2.70
2022-10-05T18:59:46.890Z,2.65
2022-10-05T19:02:38.434Z,2.30
2022-10-05T19:05:51.525Z,3.05
2022-10-05T19:08:50.228Z,2.35
2022-10-05T19:12:01.278Z,3.35
2022-10-05T19:15:15.644Z,2.60
2022-10-05T19:18:43.205Z,2.65
2022-10-05T19:21:51.390Z,3.00
2022-10-05T19:25:04.403Z,2.78
2022-10-05T19:28:27.002Z,3.05
2022-10-05T19:31:14.102Z,3.17
2022-10-05T19:34:28.377Z,3.20
2022-10-05T19:37:48.889Z,3.45
2022-10-05T19:41:13.324Z,3.22
2022-10-05T19:44:39.100Z,3.20
2022-10-05T19:48:14.526Z,4.07
2022-10-05T19:50:59.201Z,3.35
2022-10-05T19:53:37.814Z,3.50
2022-10-05T19:56:31.082Z,3.53
2022-10-05T19:59:17.207Z,3.33
2022-10-05T20:01:56.719Z,2.90
2022-10-05T20:04:36.672Z,2.97
2022-10-05T20:07:04.917Z,3.08
2022-10-05T20:10:22.794Z,3.10
2022-10-05T20:12:57.504Z,3.08
2022-10-05T20:15:55.327Z,3.15
2022-10-05T20:19:07.798Z,3.40
2022-10-05T20:21:49.512Z,2.60
2022-10-05T20:24:25.759Z,3.08
2022-10-05T20:27:09.533Z,2.90
2022-10-05T20:29:44.523Z,2.40
2022-10-05T20:32:18.718Z,2.67
2022-10-05T20:34:49.402Z,2.72
2022-10-05T20:37:18.967Z,3.22
2022-10-05T20:39:47.899Z,2.27
2022-10-05T20:42:15.209Z,2.88
2022-10-05T20:44:43.737Z,2.83
2022-10-05T20:47:11.821Z,2.88
2022-10-05T20:49:44.453Z,3.03
2022-10-05T20:52:15.061Z,3.60
2022-10-05T20:54:43.184Z,3.33
2022-10-05T20:57:11.038Z,3.75
2022-10-05T20:59:38.392Z,2.90
2022-10-05T21:02:06.257Z,4.32
2022-10-05T21:04:41.255Z,4.20
2022-10-05T21:07:09.334Z,4.38
2022-10-05T21:09:38.476Z,3.95
2022-10-05T21:12:05.933Z,4.82
2022-10-05T21:14:34.518Z,3.50
2022-10-05T21:17:04.483Z,4.43
2022-10-05T21:19:38.107Z,4.35
2022-10-05T21:22:10.669Z,4.30
2022-10-05T21:24:40.867Z,3.63
2022-10-05T21:27:09.628Z,4.75
2022-10-05T21:29:37.250Z,4.20
2022-10-05T21:32:08.645Z,3.53
2022-10-05T21:34:36.053Z,4.03
2022-10-05T21:37:03.413Z,3.70
2022-10-05T21:39:30.679Z,4.13
2022-10-05T21:41:57.953Z,3.58
2022-10-05T21:44:25.343Z,3.28
2022-10-05T21:46:52.908Z,3.88
2022-10-05T21:49:20.481Z,3.95
2022-10-05T21:51:48.514Z,3.33
2022-10-05T21:54:21.220Z,3.78
2022-10-05T21:56:57.967Z,3.92
2022-10-05T21:59:33.611Z,4.10
2022-10-05T22:02:00.925Z,4.22
2022-10-05T22:04:29.142Z,4.65
2022-10-05T22:06:56.792Z,4.40
2022-10-05T22:09:24.899Z,4.28
2022-10-05T22:11:52.167Z,4.47
2022-10-05T22:14:19.447Z,4.85
2022-10-05T22:16:47.249Z,5.03
2022-10-05T22:19:19.967Z,5.10
2022-10-05T22:21:47.327Z,5.38
2022-10-05T22:24:15.512Z,5.13
2022-10-05T22:26:46.911Z,5.57
2022-10-05T22:29:17.380Z,4.40
2022-10-05T22:34:18.033Z,4.68
2022-10-05T22:36:45.874Z,4.40
2022-10-05T22:39:14.252Z,4.88
2022-10-05T22:41:41.818Z,5.57
2022-10-05T22:44:10.780Z,4.80
2022-10-05T22:46:38.395Z,5.32
2022-10-05T22:49:05.692Z,5.25
2022-10-05T22:51:32.985Z,5.75
2022-10-05T22:54:00.272Z,4.70
2022-10-05T22:56:27.608Z,4.85
2022-10-05T22:58:54.865Z,5.18
2022-10-05T23:01:23.323Z,4.60
2022-10-05T23:03:50.596Z,5.57
2022-10-05T23:06:20.853Z,4.88
2022-10-05T23:08:48.270Z,4.88
2022-10-05T23:11:27.096Z,4.97
2022-10-05T23:13:56.991Z,4.93
2022-10-05T23:16:28.499Z,4.50
2022-10-05T23:18:56.912Z,4.57
2022-10-05T23:21:29.072Z,4.93
2022-10-05T23:23:56.394Z,5.18
2022-10-05T23:26:33.107Z,5.13
2022-10-05T23:29:00.398Z,4.35
2022-10-05T23:31:31.884Z,5.05
2022-10-05T23:33:59.663Z,4.53
2022-10-05T23:36:32.995Z,4.85
2022-10-05T23:39:00.473Z,4.05
2022-10-05T23:41:27.778Z,4.85
2022-10-05T23:43:55.448Z,5.22
2022-10-05T23:46:23.366Z,4.90
2022-10-05T23:48:50.703Z,4.45
2022-10-05T23:51:18.026Z,4.75
2022-10-05T23:53:45.567Z,4.80
2022-10-05T23:56:13.330Z,4.68
2022-10-05T23:58:41.069Z,4.93
